sensor_id;sensor_type;location;lat;lon;timestamp;P1;durP1;ratioP1;P2;durP2;ratioP2
67049;SDS011;53955;52.442;13.284;2023-10-08T00:01:53;2.65;;;1.10;;
67049;SDS011;53955;52.442;13.284;2023-10-08T00:04:20;1.45;;;0.80;;
67049;SDS011;53955;52.442;13.284;2023-10-08T00:06:48;2.60;;;0.80;;
67049;SDS011;53955;52.442;13.284;2023-10-08T00:09:17;2.80;;;0.90;;
67049;SDS011;53955;52.442;13.284;2023-10-08T00:11:45;2.05;;;1.10;;
67049;SDS011;53955;52.442;13.284;2023-10-08T00:14:18;1.75;;;0.98;;
67049;SDS011;53955;52.442;13.284;2023-10-08T00:16:46;3.40;;;1.10;;
67049;SDS011;53955;52.442;13.284;2023-10-08T00:19:15;3.00;;;1.10;;
67049;SDS011;53955;52.442;13.284;2023-10-08T00:21:43;4.25;;;1.52;;
67049;SDS011;53955;52.442;13.284;2023-10-08T00:24:11;3.08;;;1.13;;
67049;SDS011;53955;52.442;13.284;2023-10-08T00:26:38;2.33;;;0.80;;
67049;SDS011;53955;52.442;13.284;2023-10-08T00:29:06;1.67;;;0.90;;
67049;SDS011;53955;52.442;13.284;2023-10-08T00:31:42;2.10;;;0.90;;
67049;SDS011;53955;52.442;13.284;2023-10-08T00:34:10;5.07;;;1.30;;
67049;SDS011;53955;52.442;13.284;2023-10-08T00:36:38;2.03;;;1.00;;
67049;SDS011;53955;52.442;13.284;2023-10-08T00:39:04;2.47;;;0.90;;
67049;SDS011;53955;52.442;13.284;2023-10-08T00:41:34;4.13;;;0.90;;
67049;SDS011;53955;52.442;13.284;2023-10-08T00:44:06;3.60;;;1.13;;
67049;SDS011;53955;52.442;13.284;2023-10-08T00:46:33;1.13;;;0.60;;
67049;SDS011;53955;52.442;13.284;2023-10-08T00:49:05;2.70;;;1.00;;
67049;SDS011;53955;52.442;13.284;2023-10-08T00:51:49;2.58;;;0.90;;
67049;SDS011;53955;52.442;13.284;2023-10-08T00:54:25;2.47;;;0.95;;
67049;SDS011;53955;52.442;13.284;2023-10-08T00:56:58;2.67;;;1.00;;
67049;SDS011;53955;52.442;13.284;2023-10-08T00:59:29;3.67;;;1.20;;
67049;SDS011;53955;52.442;13.284;2023-10-08T01:02:01;1.43;;;0.83;;
67049;SDS011;53955;52.442;13.284;2023-10-08T01:04:33;1.87;;;0.97;;
67049;SDS011;53955;52.442;13.284;2023-10-08T01:07:01;2.57;;;1.07;;
67049;SDS011;53955;52.442;13.284;2023-10-08T01:09:37;4.05;;;1.27;;
67049;SDS011;53955;52.442;13.284;2023-10-08T01:12:07;3.28;;;1.10;;
67049;SDS011;53955;52.442;13.284;2023-10-08T01:14:37;1.23;;;0.90;;
67049;SDS011;53955;52.442;13.284;2023-10-08T01:17:07;3.83;;;1.23;;
67049;SDS011;53955;52.442;13.284;2023-10-08T01:19:35;2.20;;;1.27;;
67049;SDS011;53955;52.442;13.284;2023-10-08T01:22:06;4.10;;;1.38;;
67049;SDS011;53955;52.442;13.284;2023-10-08T01:24:33;3.80;;;1.27;;
67049;SDS011;53955;52.442;13.284;2023-10-08T01:27:01;2.08;;;1.20;;
67049;SDS011;53955;52.442;13.284;2023-10-08T01:29:29;2.85;;;1.20;;
67049;SDS011;53955;52.442;13.284;2023-10-08T01:31:56;3.58;;;1.65;;
67049;SDS011;53955;52.442;13.284;2023-10-08T01:34:23;6.05;;;0.90;;
67049;SDS011;53955;52.442;13.284;2023-10-08T01:36:55;4.03;;;1.10;;
67049;SDS011;53955;52.442;13.284;2023-10-08T01:39:27;2.88;;;1.20;;
67049;SDS011;53955;52.442;13.284;2023-10-08T01:41:57;1.90;;;1.20;;
67049;SDS011;53955;52.442;13.284;2023-10-08T01:44:23;2.20;;;1.10;;
67049;SDS011;53955;52.442;13.284;2023-10-08T01:46:50;3.23;;;1.20;;
67049;SDS011;53955;52.442;13.284;2023-10-08T01:49:17;2.55;;;1.33;;
67049;SDS011;53955;52.442;13.284;2023-10-08T01:51:47;3.20;;;1.50;;
67049;SDS011;53955;52.442;13.284;2023-10-08T01:54:15;3.63;;;1.47;;
67049;SDS011;53955;52.442;13.284;2023-10-08T01:56:47;3.47;;;1.83;;
67049;SDS011;53955;52.442;13.284;2023-10-08T01:59:15;5.72;;;1.70;;
67049;SDS011;53955;52.442;13.284;2023-10-08T02:01:41;6.13;;;1.70;;
67049;SDS011;53955;52.442;13.284;2023-10-08T02:04:10;4.95;;;1.80;;
67049;SDS011;53955;52.442;13.284;2023-10-08T02:06:37;5.60;;;1.80;;
67049;SDS011;53955;52.442;13.284;2023-10-08T02:09:05;5.93;;;2.10;;
67049;SDS011;53955;52.442;13.284;2023-10-08T02:11:40;5.80;;;2.35;;
67049;SDS011;53955;52.442;13.284;2023-10-08T02:14:12;5.43;;;1.77;;
67049;SDS011;53955;52.442;13.284;2023-10-08T02:16:40;3.90;;;2.15;;
67049;SDS011;53955;52.442;13.284;2023-10-08T02:19:08;4.15;;;2.00;;
67049;SDS011;53955;52.442;13.284;2023-10-08T02:21:35;4.47;;;1.85;;
67049;SDS011;53955;52.442;13.284;2023-10-08T02:24:03;3.42;;;1.80;;
67049;SDS011;53955;52.442;13.284;2023-10-08T02:26:30;2.65;;;1.35;;
67049;SDS011;53955;52.442;13.284;2023-10-08T02:28:57;4.65;;;1.83;;
67049;SDS011;53955;52.442;13.284;2023-10-08T02:31:26;5.03;;;1.75;;
67049;SDS011;53955;52.442;13.284;2023-10-08T02:33:53;5.03;;;2.13;;
67049;SDS011;53955;52.442;13.284;2023-10-08T02:36:19;4.20;;;1.95;;
67049;SDS011;53955;52.442;13.284;2023-10-08T02:38:46;7.50;;;2.60;;
67049;SDS011;53955;52.442;13.284;2023-10-08T02:41:15;6.53;;;2.53;;
67049;SDS011;53955;52.442;13.284;2023-10-08T02:43:42;5.45;;;1.92;;
67049;SDS011;53955;52.442;13.284;2023-10-08T02:46:10;5.18;;;1.83;;
67049;SDS011;53955;52.442;13.284;2023-10-08T02:48:41;5.60;;;2.22;;
67049;SDS011;53955;52.442;13.284;2023-10-08T02:51:08;5.32;;;2.25;;
67049;SDS011;53955;52.442;13.284;2023-10-08T02:53:39;4.85;;;2.13;;
67049;SDS011;53955;52.442;13.284;2023-10-08T02:56:07;4.75;;;2.08;;
67049;SDS011;53955;52.442;13.284;2023-10-08T02:58:38;7.65;;;2.10;;
67049;SDS011;53955;52.442;13.284;2023-10-08T03:01:04;6.78;;;2.20;;
67049;SDS011;53955;52.442;13.284;2023-10-08T03:03:31;4.70;;;1.60;;
67049;SDS011;53955;52.442;13.284;2023-10-08T03:05:59;4.55;;;2.25;;
67049;SDS011;53955;52.442;13.284;2023-10-08T03:08:28;5.85;;;2.45;;
67049;SDS011;53955;52.442;13.284;2023-10-08T03:10:56;6.22;;;2.00;;
67049;SDS011;53955;52.442;13.284;2023-10-08T03:13:27;4.10;;;2.10;;
67049;SDS011;53955;52.442;13.284;2023-10-08T03:15:54;4.97;;;2.07;;
67049;SDS011;53955;52.442;13.284;2023-10-08T03:18:33;4.10;;;1.87;;
67049;SDS011;53955;52.442;13.284;2023-10-08T03:21:03;4.20;;;1.80;;
67049;SDS011;53955;52.442;13.284;2023-10-08T03:23:30;3.13;;;1.50;;
67049;SDS011;53955;52.442;13.284;2023-10-08T03:25:59;3.97;;;1.93;;
67049;SDS011;53955;52.442;13.284;2023-10-08T03:28:35;4.03;;;1.63;;
67049;SDS011;53955;52.442;13.284;2023-10-08T03:31:02;3.83;;;1.80;;
67049;SDS011;53955;52.442;13.284;2023-10-08T03:33:30;5.77;;;2.33;;
67049;SDS011;53955;52.442;13.284;2023-10-08T03:35:59;7.97;;;2.10;;
67049;SDS011;53955;52.442;13.284;2023-10-08T03:38:35;4.35;;;1.83;;
67049;SDS011;53955;52.442;13.284;2023-10-08T03:41:15;3.75;;;1.73;;
67049;SDS011;53955;52.442;13.284;2023-10-08T03:43:45;4.60;;;1.90;;
67049;SDS011;53955;52.442;13.284;2023-10-08T03:46:21;4.57;;;1.70;;
67049;SDS011;53955;52.442;13.284;2023-10-08T03:48:49;6.72;;;2.10;;
67049;SDS011;53955;52.442;13.284;2023-10-08T03:51:16;7.38;;;2.28;;
67049;SDS011;53955;52.442;13.284;2023-10-08T03:53:47;5.82;;;1.80;;
67049;SDS011;53955;52.442;13.284;2023-10-08T03:56:40;5.47;;;1.87;;
67049;SDS011;53955;52.442;13.284;2023-10-08T04:01:39;8.30;;;1.98;;
67049;SDS011;53955;52.442;13.284;2023-10-08T04:04:06;7.00;;;2.00;;
67049;SDS011;53955;52.442;13.284;2023-10-08T04:06:37;5.00;;;2.10;;
67049;SDS011;53955;52.442;13.284;2023-10-08T04:09:05;10.75;;;2.45;;
67049;SDS011;53955;52.442;13.284;2023-10-08T04:11:41;4.55;;;2.17;;
67049;SDS011;53955;52.442;13.284;2023-10-08T04:14:17;4.57;;;2.40;;
67049;SDS011;53955;52.442;13.284;2023-10-08T04:16:44;6.95;;;2.20;;
67049;SDS011;53955;52.442;13.284;2023-10-08T04:19:11;4.35;;;1.95;;
67049;SDS011;53955;52.442;13.284;2023-10-08T04:21:38;4.28;;;2.10;;
67049;SDS011;53955;52.442;13.284;2023-10-08T04:24:09;6.88;;;2.28;;
67049;SDS011;53955;52.442;13.284;2023-10-08T04:26:39;5.00;;;1.98;;
67049;SDS011;53955;52.442;13.284;2023-10-08T04:29:07;6.05;;;2.45;;
67049;SDS011;53955;52.442;13.284;2023-10-08T04:31:34;5.13;;;2.10;;
67049;SDS011;53955;52.442;13.284;2023-10-08T04:34:03;4.95;;;2.17;;
67049;SDS011;53955;52.442;13.284;2023-10-08T04:36:35;5.40;;;2.05;;
67049;SDS011;53955;52.442;13.284;2023-10-08T04:39:03;12.07;;;2.20;;
67049;SDS011;53955;52.442;13.284;2023-10-08T04:41:39;6.30;;;1.63;;
67049;SDS011;53955;52.442;13.284;2023-10-08T04:44:07;6.67;;;2.47;;
67049;SDS011;53955;52.442;13.284;2023-10-08T04:46:40;5.13;;;1.83;;
67049;SDS011;53955;52.442;13.284;2023-10-08T04:49:12;5.97;;;2.30;;
67049;SDS011;53955;52.442;13.284;2023-10-08T04:51:52;5.10;;;2.00;;
67049;SDS011;53955;52.442;13.284;2023-10-08T04:54:22;6.43;;;2.13;;
67049;SDS011;53955;52.442;13.284;2023-10-08T04:56:51;5.70;;;2.00;;
67049;SDS011;53955;52.442;13.284;2023-10-08T04:59:18;6.18;;;2.70;;
67049;SDS011;53955;52.442;13.284;2023-10-08T05:01:47;4.13;;;2.20;;
67049;SDS011;53955;52.442;13.284;2023-10-08T05:04:27;3.88;;;2.00;;
67049;SDS011;53955;52.442;13.284;2023-10-08T05:06:57;5.05;;;2.00;;
67049;SDS011;53955;52.442;13.284;2023-10-08T05:09:42;3.42;;;1.80;;
67049;SDS011;53955;52.442;13.284;2023-10-08T05:12:14;8.25;;;2.22;;
67049;SDS011;53955;52.442;13.284;2023-10-08T05:14:59;6.25;;;2.58;;
67049;SDS011;53955;52.442;13.284;2023-10-08T05:17:46;12.57;;;2.22;;
67049;SDS011;53955;52.442;13.284;2023-10-08T05:20:23;4.47;;;2.10;;
67049;SDS011;53955;52.442;13.284;2023-10-08T05:23:05;7.18;;;2.03;;
67049;SDS011;53955;52.442;13.284;2023-10-08T05:25:45;6.55;;;1.92;;
67049;SDS011;53955;52.442;13.284;2023-10-08T05:28:24;4.35;;;2.25;;
67049;SDS011;53955;52.442;13.284;2023-10-08T05:30:51;6.28;;;2.30;;
67049;SDS011;53955;52.442;13.284;2023-10-08T05:33:36;7.38;;;3.00;;
67049;SDS011;53955;52.442;13.284;2023-10-08T05:36:24;6.25;;;2.05;;
67049;SDS011;53955;52.442;13.284;2023-10-08T05:38:53;5.57;;;2.47;;
67049;SDS011;53955;52.442;13.284;2023-10-08T05:41:25;8.85;;;2.40;;
67049;SDS011;53955;52.442;13.284;2023-10-08T05:44:05;5.43;;;2.40;;
67049;SDS011;53955;52.442;13.284;2023-10-08T05:46:49;8.20;;;2.33;;
67049;SDS011;53955;52.442;13.284;2023-10-08T05:49:31;6.70;;;2.25;;
67049;SDS011;53955;52.442;13.284;2023-10-08T05:52:07;6.43;;;2.15;;
67049;SDS011;53955;52.442;13.284;2023-10-08T05:54:51;4.60;;;2.28;;
67049;SDS011;53955;52.442;13.284;2023-10-08T05:57:40;8.65;;;2.15;;
67049;SDS011;53955;52.442;13.284;2023-10-08T06:00:13;4.47;;;2.13;;
67049;SDS011;53955;52.442;13.284;2023-10-08T06:02:57;3.97;;;2.33;;
67049;SDS011;53955;52.442;13.284;2023-10-08T06:05:36;5.88;;;2.08;;
67049;SDS011;53955;52.442;13.284;2023-10-08T06:08:29;6.88;;;2.40;;
67049;SDS011;53955;52.442;13.284;2023-10-08T06:11:13;5.53;;;2.70;;
67049;SDS011;53955;52.442;13.284;2023-10-08T06:13:52;8.85;;;2.22;;
67049;SDS011;53955;52.442;13.284;2023-10-08T06:16:26;5.50;;;2.25;;
67049;SDS011;53955;52.442;13.284;2023-10-08T06:19:06;6.53;;;1.95;;
67049;SDS011;53955;52.442;13.284;2023-10-08T06:21:34;4.00;;;1.67;;
67049;SDS011;53955;52.442;13.284;2023-10-08T06:24:01;6.53;;;1.60;;
67049;SDS011;53955;52.442;13.284;2023-10-08T06:26:33;5.53;;;1.88;;
67049;SDS011;53955;52.442;13.284;2023-10-08T06:29:03;5.00;;;1.40;;
67049;SDS011;53955;52.442;13.284;2023-10-08T06:31:44;4.80;;;1.73;;
67049;SDS011;53955;52.442;13.284;2023-10-08T06:34:16;6.95;;;1.70;;
67049;SDS011;53955;52.442;13.284;2023-10-08T06:36:46;4.65;;;1.50;;
67049;SDS011;53955;52.442;13.284;2023-10-08T06:39:13;6.35;;;1.60;;
67049;SDS011;53955;52.442;13.284;2023-10-08T06:41:44;5.55;;;1.50;;
67049;SDS011;53955;52.442;13.284;2023-10-08T06:44:11;5.50;;;1.77;;
67049;SDS011;53955;52.442;13.284;2023-10-08T06:46:40;4.82;;;1.40;;
67049;SDS011;53955;52.442;13.284;2023-10-08T06:49:08;5.00;;;1.50;;
67049;SDS011;53955;52.442;13.284;2023-10-08T06:51:37;5.55;;;1.73;;
67049;SDS011;53955;52.442;13.284;2023-10-08T06:54:04;7.35;;;1.88;;
67049;SDS011;53955;52.442;13.284;2023-10-08T06:56:35;5.57;;;1.55;;
67049;SDS011;53955;52.442;13.284;2023-10-08T06:59:01;4.32;;;1.80;;
67049;SDS011;53955;52.442;13.284;2023-10-08T07:01:28;4.17;;;1.83;;
67049;SDS011;53955;52.442;13.284;2023-10-08T07:04:04;3.97;;;1.70;;
67049;SDS011;53955;52.442;13.284;2023-10-08T07:06:32;5.40;;;1.67;;
67049;SDS011;53955;52.442;13.284;2023-10-08T07:09:02;4.35;;;1.38;;
67049;SDS011;53955;52.442;13.284;2023-10-08T07:28:50;4.40;;;1.20;;
67049;SDS011;53955;52.442;13.284;2023-10-08T07:36:21;5.78;;;1.60;;
67049;SDS011;53955;52.442;13.284;2023-10-08T07:38:48;3.50;;;1.27;;
67049;SDS011;53955;52.442;13.284;2023-10-08T07:41:16;6.95;;;1.58;;
67049;SDS011;53955;52.442;13.284;2023-10-08T07:43:45;4.07;;;1.55;;
67049;SDS011;53955;52.442;13.284;2023-10-08T07:46:18;4.60;;;1.60;;
67049;SDS011;53955;52.442;13.284;2023-10-08T07:48:44;3.27;;;1.40;;
67049;SDS011;53955;52.442;13.284;2023-10-08T07:51:13;5.50;;;1.77;;
67049;SDS011;53955;52.442;13.284;2023-10-08T07:53:39;4.15;;;1.60;;
67049;SDS011;53955;52.442;13.284;2023-10-08T07:56:07;5.50;;;1.55;;
67049;SDS011;53955;52.442;13.284;2023-10-08T08:03:32;4.70;;;1.50;;
67049;SDS011;53955;52.442;13.284;2023-10-08T08:06:01;3.42;;;1.40;;
67049;SDS011;53955;52.442;13.284;2023-10-08T08:08:31;2.97;;;1.20;;
67049;SDS011;53955;52.442;13.284;2023-10-08T08:10:58;2.85;;;0.90;;
67049;SDS011;53955;52.442;13.284;2023-10-08T08:15:59;2.97;;;1.08;;
67049;SDS011;53955;52.442;13.284;2023-10-08T08:18:34;3.75;;;1.10;;
67049;SDS011;53955;52.442;13.284;2023-10-08T08:26:05;4.18;;;1.17;;
67049;SDS011;53955;52.442;13.284;2023-10-08T08:33:38;1.60;;;0.70;;
67049;SDS011;53955;52.442;13.284;2023-10-08T08:36:17;2.42;;;0.60;;
67049;SDS011;53955;52.442;13.284;2023-10-08T08:38:45;2.20;;;0.68;;
67049;SDS011;53955;52.442;13.284;2023-10-08T08:41:12;2.33;;;0.70;;
67049;SDS011;53955;52.442;13.284;2023-10-08T08:43:43;1.90;;;0.90;;
67049;SDS011;53955;52.442;13.284;2023-10-08T08:46:12;1.73;;;0.52;;
67049;SDS011;53955;52.442;13.284;2023-10-08T08:51:06;3.08;;;0.70;;
67049;SDS011;53955;52.442;13.284;2023-10-08T08:53:34;1.73;;;0.57;;
67049;SDS011;53955;52.442;13.284;2023-10-08T08:56:01;1.67;;;0.52;;
67049;SDS011;53955;52.442;13.284;2023-10-08T08:58:29;2.92;;;0.80;;
67049;SDS011;53955;52.442;13.284;2023-10-08T09:00:56;2.00;;;0.70;;
67049;SDS011;53955;52.442;13.284;2023-10-08T09:03:25;2.42;;;0.80;;
67049;SDS011;53955;52.442;13.284;2023-10-08T09:05:55;2.78;;;0.75;;
67049;SDS011;53955;52.442;13.284;2023-10-08T09:08:22;2.88;;;1.15;;
67049;SDS011;53955;52.442;13.284;2023-10-08T09:10:53;2.33;;;0.70;;
67049;SDS011;53955;52.442;13.284;2023-10-08T09:15:52;1.80;;;0.73;;
67049;SDS011;53955;52.442;13.284;2023-10-08T09:18:23;1.50;;;0.80;;
67049;SDS011;53955;52.442;13.284;2023-10-08T09:40:34;2.67;;;0.93;;
67049;SDS011;53955;52.442;13.284;2023-10-08T09:43:01;2.65;;;0.80;;
67049;SDS011;53955;52.442;13.284;2023-10-08T09:47:56;3.33;;;0.80;;
67049;SDS011;53955;52.442;13.284;2023-10-08T09:50:26;1.83;;;0.93;;
67049;SDS011;53955;52.442;13.284;2023-10-08T09:52:59;2.45;;;0.75;;
67049;SDS011;53955;52.442;13.284;2023-10-08T09:55:29;1.20;;;0.50;;
67049;SDS011;53955;52.442;13.284;2023-10-08T09:57:55;3.10;;;1.67;;
67049;SDS011;53955;52.442;13.284;2023-10-08T10:00:22;2.77;;;0.87;;
67049;SDS011;53955;52.442;13.284;2023-10-08T10:10:26;2.00;;;0.73;;
67049;SDS011;53955;52.442;13.284;2023-10-08T10:12:56;4.25;;;1.10;;
67049;SDS011;53955;52.442;13.284;2023-10-08T10:58:14;1.98;;;1.10;;
67049;SDS011;53955;52.442;13.284;2023-10-08T11:00:42;3.72;;;1.08;;
67049;SDS011;53955;52.442;13.284;2023-10-08T11:08:20;1.90;;;0.90;;
67049;SDS011;53955;52.442;13.284;2023-10-08T11:10:48;2.92;;;1.52;;
67049;SDS011;53955;52.442;13.284;2023-10-08T11:35:55;4.13;;;1.75;;
67049;SDS011;53955;52.442;13.284;2023-10-08T11:38:24;3.60;;;1.17;;
67049;SDS011;53955;52.442;13.284;2023-10-08T11:45:49;4.40;;;1.10;;
67049;SDS011;53955;52.442;13.284;2023-10-08T11:58:13;3.17;;;0.95;;
67049;SDS011;53955;52.442;13.284;2023-10-08T12:28:03;1.80;;;0.90;;
67049;SDS011;53955;52.442;13.284;2023-10-08T12:35:27;1.52;;;0.88;;
67049;SDS011;53955;52.442;13.284;2023-10-08T12:37:54;1.63;;;0.70;;
67049;SDS011;53955;52.442;13.284;2023-10-08T12:40:21;1.17;;;0.68;;
67049;SDS011;53955;52.442;13.284;2023-10-08T12:42:49;2.10;;;0.70;;
67049;SDS011;53955;52.442;13.284;2023-10-08T12:45:19;2.40;;;0.80;;
67049;SDS011;53955;52.442;13.284;2023-10-08T12:47:47;1.60;;;0.70;;
67049;SDS011;53955;52.442;13.284;2023-10-08T12:55:17;2.30;;;1.00;;
67049;SDS011;53955;52.442;13.284;2023-10-08T12:57:48;2.65;;;0.80;;
67049;SDS011;53955;52.442;13.284;2023-10-08T13:00:20;1.67;;;0.82;;
67049;SDS011;53955;52.442;13.284;2023-10-08T13:07:53;2.30;;;0.70;;
67049;SDS011;53955;52.442;13.284;2023-10-08T13:10:21;1.50;;;0.73;;
67049;SDS011;53955;52.442;13.284;2023-10-08T13:12:48;2.38;;;0.80;;
67049;SDS011;53955;52.442;13.284;2023-10-08T13:15:15;1.70;;;0.75;;
67049;SDS011;53955;52.442;13.284;2023-10-08T13:39:55;1.85;;;0.82;;
67049;SDS011;53955;52.442;13.284;2023-10-08T13:57:15;1.50;;;0.70;;
67049;SDS011;53955;52.442;13.284;2023-10-08T14:02:13;1.45;;;0.80;;
67049;SDS011;53955;52.442;13.284;2023-10-08T14:04:40;1.27;;;0.68;;
67049;SDS011;53955;52.442;13.284;2023-10-08T14:19:30;1.58;;;0.98;;
67049;SDS011;53955;52.442;13.284;2023-10-08T14:22:04;1.05;;;0.70;;
67049;SDS011;53955;52.442;13.284;2023-10-08T15:49:31;6.35;;;0.95;;
67049;SDS011;53955;52.442;13.284;2023-10-08T15:51:58;2.10;;;1.05;;
67049;SDS011;53955;52.442;13.284;2023-10-08T15:54:24;1.50;;;0.75;;
67049;SDS011;53955;52.442;13.284;2023-10-08T15:56:52;1.85;;;1.10;;
67049;SDS011;53955;52.442;13.284;2023-10-08T15:59:18;3.17;;;1.10;;
67049;SDS011;53955;52.442;13.284;2023-10-08T16:01:46;2.05;;;0.80;;
67049;SDS011;53955;52.442;13.284;2023-10-08T16:04:14;2.53;;;0.80;;
67049;SDS011;53955;52.442;13.284;2023-10-08T16:06:40;3.30;;;0.90;;
67049;SDS011;53955;52.442;13.284;2023-10-08T16:09:07;1.35;;;0.80;;
67049;SDS011;53955;52.442;13.284;2023-10-08T16:11:35;2.38;;;1.30;;
67049;SDS011;53955;52.442;13.284;2023-10-08T16:14:04;2.67;;;1.25;;
67049;SDS011;53955;52.442;13.284;2023-10-08T16:16:31;2.58;;;1.20;;
67049;SDS011;53955;52.442;13.284;2023-10-08T16:18:57;2.88;;;1.40;;
67049;SDS011;53955;52.442;13.284;2023-10-08T16:21:25;3.85;;;2.03;;
67049;SDS011;53955;52.442;13.284;2023-10-08T16:23:53;5.72;;;2.83;;
67049;SDS011;53955;52.442;13.284;2023-10-08T16:26:22;7.07;;;2.33;;
67049;SDS011;53955;52.442;13.284;2023-10-08T16:28:49;3.92;;;1.50;;
67049;SDS011;53955;52.442;13.284;2023-10-08T16:31:17;2.90;;;1.48;;
67049;SDS011;53955;52.442;13.284;2023-10-08T16:33:45;3.90;;;1.63;;
67049;SDS011;53955;52.442;13.284;2023-10-08T16:36:14;3.17;;;1.60;;
67049;SDS011;53955;52.442;13.284;2023-10-08T16:38:40;3.47;;;1.50;;
67049;SDS011;53955;52.442;13.284;2023-10-08T16:41:07;2.30;;;1.17;;
67049;SDS011;53955;52.442;13.284;2023-10-08T16:43:37;1.63;;;1.02;;
67049;SDS011;53955;52.442;13.284;2023-10-08T16:46:03;1.75;;;1.08;;
67049;SDS011;53955;52.442;13.284;2023-10-08T16:48:31;2.50;;;1.13;;
67049;SDS011;53955;52.442;13.284;2023-10-08T16:50:58;5.63;;;1.77;;
67049;SDS011;53955;52.442;13.284;2023-10-08T16:53:26;4.25;;;1.55;;
67049;SDS011;53955;52.442;13.284;2023-10-08T16:55:53;2.63;;;1.45;;
67049;SDS011;53955;52.442;13.284;2023-10-08T16:58:20;4.72;;;1.73;;
67049;SDS011;53955;52.442;13.284;2023-10-08T17:00:46;3.10;;;1.90;;
67049;SDS011;53955;52.442;13.284;2023-10-08T17:03:15;3.05;;;1.60;;
67049;SDS011;53955;52.442;13.284;2023-10-08T17:05:47;3.13;;;1.48;;
67049;SDS011;53955;52.442;13.284;2023-10-08T17:08:14;4.47;;;1.73;;
67049;SDS011;53955;52.442;13.284;2023-10-08T17:10:42;4.95;;;2.30;;
67049;SDS011;53955;52.442;13.284;2023-10-08T17:13:09;5.95;;;2.83;;
67049;SDS011;53955;52.442;13.284;2023-10-08T17:15:37;4.85;;;1.92;;
67049;SDS011;53955;52.442;13.284;2023-10-08T17:18:04;2.90;;;1.50;;
67049;SDS011;53955;52.442;13.284;2023-10-08T17:20:31;3.97;;;1.60;;
67049;SDS011;53955;52.442;13.284;2023-10-08T17:22:59;4.05;;;1.63;;
67049;SDS011;53955;52.442;13.284;2023-10-08T17:25:25;2.83;;;1.50;;
67049;SDS011;53955;52.442;13.284;2023-10-08T17:27:52;2.58;;;1.60;;
67049;SDS011;53955;52.442;13.284;2023-10-08T17:30:18;3.47;;;1.60;;
67049;SDS011;53955;52.442;13.284;2023-10-08T17:32:47;4.15;;;2.40;;
67049;SDS011;53955;52.442;13.284;2023-10-08T17:35:14;4.88;;;2.50;;
67049;SDS011;53955;52.442;13.284;2023-10-08T17:37:42;4.30;;;2.42;;
67049;SDS011;53955;52.442;13.284;2023-10-08T17:40:11;6.07;;;2.15;;
67049;SDS011;53955;52.442;13.284;2023-10-08T17:42:37;4.75;;;2.45;;
67049;SDS011;53955;52.442;13.284;2023-10-08T17:45:05;3.63;;;1.80;;
67049;SDS011;53955;52.442;13.284;2023-10-08T17:47:33;3.53;;;2.00;;
67049;SDS011;53955;52.442;13.284;2023-10-08T17:50:00;3.88;;;2.17;;
67049;SDS011;53955;52.442;13.284;2023-10-08T17:52:27;6.47;;;2.47;;
67049;SDS011;53955;52.442;13.284;2023-10-08T17:54:54;5.05;;;2.53;;
67049;SDS011;53955;52.442;13.284;2023-10-08T17:57:24;6.78;;;3.40;;
67049;SDS011;53955;52.442;13.284;2023-10-08T17:59:50;6.25;;;3.78;;
67049;SDS011;53955;52.442;13.284;2023-10-08T18:02:17;5.82;;;3.65;;
67049;SDS011;53955;52.442;13.284;2023-10-08T18:04:45;6.13;;;3.40;;
67049;SDS011;53955;52.442;13.284;2023-10-08T18:07:12;5.57;;;3.47;;
67049;SDS011;53955;52.442;13.284;2023-10-08T18:09:39;8.75;;;4.28;;
67049;SDS011;53955;52.442;13.284;2023-10-08T18:12:07;6.50;;;3.97;;
67049;SDS011;53955;52.442;13.284;2023-10-08T18:14:36;7.63;;;4.22;;
67049;SDS011;53955;52.442;13.284;2023-10-08T18:17:04;8.73;;;4.82;;
67049;SDS011;53955;52.442;13.284;2023-10-08T18:19:31;7.63;;;4.50;;
67049;SDS011;53955;52.442;13.284;2023-10-08T18:22:00;10.13;;;5.25;;
67049;SDS011;53955;52.442;13.284;2023-10-08T18:24:27;8.25;;;5.07;;
67049;SDS011;53955;52.442;13.284;2023-10-08T18:26:54;8.40;;;5.15;;
67049;SDS011;53955;52.442;13.284;2023-10-08T18:29:21;9.60;;;6.00;;
67049;SDS011;53955;52.442;13.284;2023-10-08T18:31:50;12.88;;;6.22;;
67049;SDS011;53955;52.442;13.284;2023-10-08T18:34:16;8.30;;;5.53;;
67049;SDS011;53955;52.442;13.284;2023-10-08T18:36:43;8.30;;;5.50;;
67049;SDS011;53955;52.442;13.284;2023-10-08T18:39:10;8.50;;;4.90;;
67049;SDS011;53955;52.442;13.284;2023-10-08T18:41:40;7.70;;;4.72;;
67049;SDS011;53955;52.442;13.284;2023-10-08T18:44:08;7.22;;;4.78;;
67049;SDS011;53955;52.442;13.284;2023-10-08T18:46:34;6.88;;;4.18;;
67049;SDS011;53955;52.442;13.284;2023-10-08T18:49:03;7.25;;;4.72;;
67049;SDS011;53955;52.442;13.284;2023-10-08T18:51:31;6.57;;;4.15;;
67049;SDS011;53955;52.442;13.284;2023-10-08T18:53:58;8.60;;;4.60;;
67049;SDS011;53955;52.442;13.284;2023-10-08T18:56:25;9.88;;;4.63;;
67049;SDS011;53955;52.442;13.284;2023-10-08T18:58:52;6.20;;;4.00;;
67049;SDS011;53955;52.442;13.284;2023-10-08T19:01:19;10.05;;;5.07;;
67049;SDS011;53955;52.442;13.284;2023-10-08T19:03:50;10.15;;;5.82;;
67049;SDS011;53955;52.442;13.284;2023-10-08T19:06:19;12.63;;;6.20;;
67049;SDS011;53955;52.442;13.284;2023-10-08T19:08:45;11.18;;;6.75;;
67049;SDS011;53955;52.442;13.284;2023-10-08T19:11:12;10.85;;;6.97;;
67049;SDS011;53955;52.442;13.284;2023-10-08T19:13:41;11.65;;;7.10;;
67049;SDS011;53955;52.442;13.284;2023-10-08T19:16:09;10.13;;;6.32;;
67049;SDS011;53955;52.442;13.284;2023-10-08T19:18:39;9.85;;;6.53;;
67049;SDS011;53955;52.442;13.284;2023-10-08T19:21:07;10.73;;;6.90;;
67049;SDS011;53955;52.442;13.284;2023-10-08T19:23:35;11.50;;;7.18;;
67049;SDS011;53955;52.442;13.284;2023-10-08T19:26:02;11.73;;;7.22;;
67049;SDS011;53955;52.442;13.284;2023-10-08T19:28:29;9.50;;;6.55;;
67049;SDS011;53955;52.442;13.284;2023-10-08T19:30:57;12.68;;;7.20;;
67049;SDS011;53955;52.442;13.284;2023-10-08T19:33:27;11.68;;;6.75;;
67049;SDS011;53955;52.442;13.284;2023-10-08T19:35:55;12.25;;;7.22;;
67049;SDS011;53955;52.442;13.284;2023-10-08T19:38:22;13.20;;;7.68;;
67049;SDS011;53955;52.442;13.284;2023-10-08T19:40:50;12.77;;;6.88;;
67049;SDS011;53955;52.442;13.284;2023-10-08T19:43:18;9.52;;;5.35;;
67049;SDS011;53955;52.442;13.284;2023-10-08T19:45:44;9.13;;;3.75;;
67049;SDS011;53955;52.442;13.284;2023-10-08T19:48:12;7.90;;;4.40;;
67049;SDS011;53955;52.442;13.284;2023-10-08T19:50:40;8.13;;;4.68;;
67049;SDS011;53955;52.442;13.284;2023-10-08T19:53:08;7.30;;;4.18;;
67049;SDS011;53955;52.442;13.284;2023-10-08T19:55:38;7.75;;;4.63;;
67049;SDS011;53955;52.442;13.284;2023-10-08T19:58:07;7.57;;;4.40;;
67049;SDS011;53955;52.442;13.284;2023-10-08T20:00:33;7.88;;;4.15;;
67049;SDS011;53955;52.442;13.284;2023-10-08T20:03:00;6.68;;;4.28;;
67049;SDS011;53955;52.442;13.284;2023-10-08T20:05:28;7.40;;;3.75;;
67049;SDS011;53955;52.442;13.284;2023-10-08T20:07:55;8.55;;;4.70;;
67049;SDS011;53955;52.442;13.284;2023-10-08T20:10:23;8.27;;;4.80;;
67049;SDS011;53955;52.442;13.284;2023-10-08T20:12:50;6.97;;;3.50;;
67049;SDS011;53955;52.442;13.284;2023-10-08T20:15:20;6.43;;;3.60;;
67049;SDS011;53955;52.442;13.284;2023-10-08T20:17:49;6.90;;;4.00;;
67049;SDS011;53955;52.442;13.284;2023-10-08T20:20:16;6.90;;;3.92;;
67049;SDS011;53955;52.442;13.284;2023-10-08T20:22:46;6.50;;;3.65;;
67049;SDS011;53955;52.442;13.284;2023-10-08T20:25:17;9.43;;;4.57;;
67049;SDS011;53955;52.442;13.284;2023-10-08T20:27:46;6.88;;;4.15;;
67049;SDS011;53955;52.442;13.284;2023-10-08T20:30:14;6.28;;;4.03;;